Time;durP1;ratioP1;P1;durP2;ratioP2;P2;SDS_P1;SDS_P2;PMS_P1;PMS_P2;Temp;Humidity;BMP_temperature;BMP_pressure;BME280_temperature;BME280_humidity;BME280_pressure;Samples;Min_cycle;Max_cycle;Signal;HPM_P1;HPM_P2
2023/10/27 00:00:27;;;;;;;1.00;1.00;;;19.50;75.10;;;;;;5126113;27;44011;-68
2023/10/27 00:02:55;;;;;;;1.00;1.00;;;19.40;75.30;;;;;;5129549;27;43440;-68
2023/10/27 00:05:23;;;;;;;1.20;1.20;;;19.40;75.60;;;;;;5127199;27;43536;-68
2023/10/27 00:07:51;;;;;;;1.27;1.27;;;19.30;76.10;;;;;;5127658;27;43421;-68
2023/10/27 00:10:19;;;;;;;1.13;1.13;;;19.30;76.00;;;;;;5127440;27;43914;-68
2023/10/27 00:12:48;;;;;;;1.10;1.10;;;19.30;75.90;;;;;;5126246;27;44036;-68
2023/10/27 00:15:16;;;;;;;1.10;1.10;;;19.20;75.80;;;;;;5127181;27;44177;-68
2023/10/27 00:17:44;;;;;;;1.17;1.17;;;19.20;76.00;;;;;;5128111;27;43407;-70
2023/10/27 00:20:13;;;;;;;1.20;1.20;;;19.20;76.30;;;;;;5126056;27;43860;-70
2023/10/27 00:22:41;;;;;;;1.20;1.20;;;19.20;76.50;;;;;;5124207;27;43496;-70
2023/10/27 00:25:10;;;;;;;1.00;1.00;;;19.20;76.20;;;;;;5127205;27;43903;-70
2023/10/27 00:27:38;;;;;;;1.27;1.27;;;19.20;76.20;;;;;;5125424;27;43883;-71
2023/10/27 00:30:09;;;;;;;1.00;1.00;;;19.20;76.20;;;;;;5126056;27;45308;-70
2023/10/27 00:32:37;;;;;;;1.20;1.20;;;19.20;76.30;;;;;;5125572;27;45044;-70
2023/10/27 00:35:06;;;;;;;1.20;1.20;;;19.10;76.60;;;;;;5126542;27;43405;-70
2023/10/27 00:37:34;;;;;;;1.00;1.00;;;19.20;76.60;;;;;;5128100;27;43461;-71
2023/10/27 00:40:02;;;;;;;1.20;1.20;;;19.30;76.30;;;;;;5125703;27;45493;-71
2023/10/27 00:42:30;;;;;;;1.20;1.20;;;19.40;75.80;;;;;;5128546;27;43415;-71
2023/10/27 00:44:58;;;;;;;1.00;1.00;;;19.50;75.40;;;;;;5126754;27;43444;-71
2023/10/27 00:47:28;;;;;;;1.20;1.20;;;19.60;75.20;;;;;;5126785;27;43555;-71
2023/10/27 00:49:56;;;;;;;1.10;1.10;;;19.50;75.00;;;;;;5125056;27;45914;-71
2023/10/27 00:52:24;;;;;;;0.93;0.93;;;19.50;75.30;;;;;;5126427;27;44952;-72
2023/10/27 00:54:52;;;;;;;1.10;1.10;;;19.40;75.40;;;;;;5126681;27;43464;-71
2023/10/27 00:57:22;;;;;;;0.97;0.97;;;19.30;75.90;;;;;;5127138;27;43628;-72
2023/10/27 00:59:51;;;;;;;1.23;1.23;;;19.30;76.10;;;;;;5122914;27;43966;-72
2023/10/27 01:02:21;;;;;;;1.20;1.20;;;19.30;75.90;;;;;;5123459;27;45650;-72
2023/10/27 01:04:50;;;;;;;0.83;0.83;;;19.20;75.80;;;;;;5128515;27;43467;-71
2023/10/27 01:07:18;;;;;;;1.33;1.33;;;19.20;75.90;;;;;;5126382;27;43639;-71
2023/10/27 01:09:47;;;;;;;0.97;0.97;;;19.20;76.10;;;;;;5126787;27;45985;-71
2023/10/27 01:12:15;;;;;;;1.17;1.17;;;19.20;76.20;;;;;;5127894;27;43401;-71
2023/10/27 01:14:43;;;;;;;1.00;1.00;;;19.20;76.30;;;;;;5125859;27;43496;-71
2023/10/27 01:17:11;;;;;;;1.10;1.10;;;19.10;76.30;;;;;;5126741;27;43400;-72
2023/10/27 01:19:39;;;;;;;1.10;1.10;;;19.10;76.40;;;;;;5121346;27;45686;-71
2023/10/27 01:22:09;;;;;;;1.20;1.20;;;19.10;76.50;;;;;;5126301;27;44829;-71
2023/10/27 01:24:38;;;;;;;1.00;1.00;;;19.10;76.60;;;;;;5126886;27;44077;-71
2023/10/27 01:27:06;;;;;;;1.13;1.13;;;19.10;77.00;;;;;;5124002;27;43772;-70
2023/10/27 01:29:34;;;;;;;1.27;1.27;;;19.20;77.00;;;;;;5126138;27;44047;-70
2023/10/27 01:32:03;;;;;;;1.30;1.30;;;19.30;76.30;;;;;;5127640;27;45167;-70
2023/10/27 01:34:31;;;;;;;1.20;1.20;;;19.50;75.60;;;;;;5128995;27;43424;-70
2023/10/27 01:36:59;;;;;;;1.27;1.27;;;19.80;75.00;;;;;;5132213;27;44019;-70
2023/10/27 01:39:27;;;;;;;1.10;1.10;;;20.00;74.20;;;;;;5129061;27;45441;-70
2023/10/27 01:41:56;;;;;;;1.07;1.07;;;20.20;73.30;;;;;;5129294;27;44717;-70
2023/10/27 01:44:24;;;;;;;0.93;0.93;;;20.40;72.70;;;;;;5130874;27;43955;-70
2023/10/27 01:46:53;;;;;;;1.17;1.17;;;20.50;72.20;;;;;;5130677;27;43463;-70
2023/10/27 01:49:21;;;;;;;1.20;1.20;;;20.60;71.90;;;;;;5127195;27;45427;-70
2023/10/27 01:51:52;;;;;;;1.10;1.10;;;20.70;71.60;;;;;;5129020;27;45958;-70
2023/10/27 01:54:20;;;;;;;1.10;1.10;;;20.70;71.50;;;;;;5129579;27;43892;-70
2023/10/27 01:56:48;;;;;;;1.10;1.10;;;20.60;71.70;;;;;;5129196;27;43536;-70
2023/10/27 01:59:18;;;;;;;1.10;1.10;;;20.40;72.00;;;;;;5123150;27;44963;-70
2023/10/27 02:01:46;;;;;;;1.20;1.20;;;20.30;72.70;;;;;;5128986;27;44696;-70
2023/10/27 02:04:14;;;;;;;1.20;1.20;;;20.20;73.10;;;;;;5129116;27;43628;-70
2023/10/27 02:06:42;;;;;;;1.20;1.20;;;20.10;73.40;;;;;;5130017;27;43509;-70
2023/10/27 02:09:11;;;;;;;1.00;1.00;;;20.00;73.70;;;;;;5128947;27;45304;-70
2023/10/27 02:11:39;;;;;;;1.10;1.10;;;19.80;73.90;;;;;;5128473;27;44686;-70
2023/10/27 02:14:07;;;;;;;1.00;1.00;;;19.70;74.60;;;;;;5129669;27;43413;-70
2023/10/27 02:16:36;;;;;;;1.03;1.03;;;19.70;75.00;;;;;;5129790;27;43494;-70
2023/10/27 02:19:04;;;;;;;1.23;1.23;;;19.70;75.50;;;;;;5127980;27;43687;-70
2023/10/27 02:21:32;;;;;;;1.13;1.13;;;19.80;74.60;;;;;;5129076;27;45296;-70
2023/10/27 02:24:00;;;;;;;0.97;0.97;;;19.80;74.40;;;;;;5128673;27;44098;-70
2023/10/27 02:26:28;;;;;;;1.00;1.00;;;19.80;74.50;;;;;;5130635;27;43420;-70
2023/10/27 02:28:56;;;;;;;1.03;1.03;;;19.70;74.80;;;;;;5130426;27;43704;-70
2023/10/27 02:31:25;;;;;;;1.00;1.00;;;19.70;74.80;;;;;;5128958;27;44460;-70
2023/10/27 02:33:54;;;;;;;0.90;0.90;;;19.60;74.80;;;;;;5130036;27;43432;-70
2023/10/27 02:36:24;;;;;;;0.90;0.90;;;19.60;74.80;;;;;;5130475;27;43440;-72
2023/10/27 02:38:52;;;;;;;1.10;1.10;;;19.50;74.90;;;;;;5128569;27;45405;-71
2023/10/27 02:41:20;;;;;;;1.10;1.10;;;19.40;75.70;;;;;;5127952;27;44441;-71
2023/10/27 02:43:48;;;;;;;1.00;1.00;;;19.50;75.70;;;;;;5125095;27;43410;-72
2023/10/27 02:46:16;;;;;;;1.00;1.00;;;19.50;75.30;;;;;;5128832;27;43608;-71
2023/10/27 02:48:45;;;;;;;1.10;1.10;;;19.60;75.10;;;;;;5129262;27;43760;-72
2023/10/27 02:51:16;;;;;;;1.17;1.17;;;19.60;75.10;;;;;;5130186;27;43530;-71
2023/10/27 02:53:44;;;;;;;1.10;1.10;;;19.50;75.00;;;;;;5128554;27;43854;-72
2023/10/27 02:56:12;;;;;;;1.47;1.20;;;19.50;75.30;;;;;;5127141;27;43509;-71
2023/10/27 02:58:40;;;;;;;0.90;0.90;;;19.50;75.30;;;;;;5128744;27;46133;-71
2023/10/27 03:01:08;;;;;;;1.10;1.10;;;19.50;75.30;;;;;;5125119;27;44361;-71
2023/10/27 03:03:38;;;;;;;1.00;1.00;;;19.40;75.20;;;;;;5128571;27;43458;-72
2023/10/27 03:06:06;;;;;;;1.20;1.20;;;19.40;75.40;;;;;;5130318;27;43568;-72
2023/10/27 03:08:36;;;;;;;0.70;0.70;;;19.30;76.10;;;;;;5127887;27;46114;-72
2023/10/27 03:11:04;;;;;;;1.10;1.10;;;19.30;76.00;;;;;;5127595;27;44533;-71
2023/10/27 03:13:32;;;;;;;1.00;1.00;;;19.30;75.80;;;;;;5127248;27;43526;-72
2023/10/27 03:16:00;;;;;;;1.00;1.00;;;19.30;75.80;;;;;;5128609;27;44330;-72
2023/10/27 03:18:28;;;;;;;1.10;1.10;;;19.20;75.80;;;;;;5149488;27;45735;-72
2023/10/27 03:20:56;;;;;;;0.90;0.90;;;19.20;77.20;;;;;;5128293;27;45183;-71
2023/10/27 03:23:25;;;;;;;1.00;1.00;;;19.30;76.30;;;;;;5128036;27;43343;-71
2023/10/27 03:25:54;;;;;;;0.80;0.80;;;19.40;75.90;;;;;;5126741;27;43588;-72
2023/10/27 03:28:22;;;;;;;0.90;0.90;;;19.50;75.30;;;;;;5128254;27;46188;-72
2023/10/27 03:30:50;;;;;;;1.03;1.03;;;19.60;75.00;;;;;;5128089;27;44689;-72
2023/10/27 03:33:18;;;;;;;1.17;1.17;;;19.70;75.60;;;;;;5129055;27;43536;-72
2023/10/27 03:35:46;;;;;;;0.90;0.90;;;19.60;74.80;;;;;;5123554;27;43482;-71
2023/10/27 03:38:15;;;;;;;0.90;0.90;;;19.60;74.80;;;;;;5126617;27;45418;-72
2023/10/27 03:40:44;;;;;;;0.93;0.93;;;19.50;75.00;;;;;;5128208;27;45138;-72
2023/10/27 03:43:14;;;;;;;1.03;1.03;;;19.40;75.70;;;;;;5128996;27;43430;-71
2023/10/27 03:45:42;;;;;;;0.90;0.90;;;19.40;75.80;;;;;;5128229;27;43580;-72
2023/10/27 03:48:10;;;;;;;1.00;1.00;;;19.40;75.60;;;;;;5128511;27;43897;-70
2023/10/27 03:50:38;;;;;;;1.00;1.00;;;19.30;75.40;;;;;;5124095;27;44829;-71
2023/10/27 03:53:06;;;;;;;0.80;0.80;;;19.30;75.60;;;;;;5127355;27;43419;-70
2023/10/27 03:55:34;;;;;;;0.90;0.90;;;19.30;76.20;;;;;;5126959;27;43477;-70
2023/10/27 03:58:16;;;;;;;1.03;1.03;;;19.30;76.30;;;;;;5128971;27;43862;-70
2023/10/27 04:00:45;;;;;;;1.10;1.10;;;19.30;76.00;;;;;;5127290;27;43612;-69
2023/10/27 04:03:13;;;;;;;1.00;1.00;;;19.20;75.80;;;;;;5128782;27;43746;-70
2023/10/27 04:05:41;;;;;;;0.87;0.87;;;19.20;76.50;;;;;;5123815;27;44265;-70
2023/10/27 04:08:09;;;;;;;0.97;0.97;;;19.20;76.40;;;;;;5128668;27;43610;-70
2023/10/27 04:10:37;;;;;;;0.80;0.80;;;19.20;76.60;;;;;;5127172;27;44387;-70
2023/10/27 04:13:07;;;;;;;1.10;1.10;;;19.30;76.20;;;;;;5128857;27;43378;-70
2023/10/27 04:15:36;;;;;;;0.90;0.90;;;19.50;75.80;;;;;;5129515;27;43421;-69
2023/10/27 04:18:04;;;;;;;0.93;0.93;;;19.60;75.20;;;;;;5125003;27;43992;-70
2023/10/27 04:20:33;;;;;;;1.00;1.00;;;19.70;74.90;;;;;;5129038;27;43452;-69
2023/10/27 04:23:01;;;;;;;0.90;0.90;;;19.70;74.70;;;;;;5129170;27;44136;-69
2023/10/27 04:25:29;;;;;;;1.00;1.00;;;19.60;74.80;;;;;;5126825;27;43436;-69
2023/10/27 04:27:57;;;;;;;0.80;0.80;;;19.50;74.80;;;;;;5128767;27;43586;-69
2023/10/27 04:30:26;;;;;;;0.77;0.77;;;19.50;75.20;;;;;;5127936;27;43501;-70
2023/10/27 04:32:55;;;;;;;0.90;0.90;;;19.40;75.80;;;;;;5124079;27;43488;-69
2023/10/27 04:35:23;;;;;;;0.73;0.73;;;19.40;75.70;;;;;;5128135;27;43798;-69
2023/10/27 04:37:52;;;;;;;1.00;1.00;;;19.40;75.60;;;;;;5126759;27;45827;-69
2023/10/27 04:40:22;;;;;;;0.90;0.90;;;19.40;75.60;;;;;;5127547;27;43427;-70
2023/10/27 04:42:50;;;;;;;0.90;0.90;;;19.30;75.80;;;;;;5125429;27;43984;-71
2023/10/27 04:45:20;;;;;;;0.90;0.90;;;19.30;76.40;;;;;;5127272;27;43843;-71
2023/10/27 04:47:48;;;;;;;0.77;0.77;;;19.30;76.20;;;;;;5126012;27;43902;-71
2023/10/27 04:50:18;;;;;;;0.90;0.90;;;19.30;76.00;;;;;;5128306;27;43374;-75
2023/10/27 04:52:46;;;;;;;0.80;0.80;;;19.20;75.80;;;;;;5127886;27;43464;-70
2023/10/27 04:55:14;;;;;;;0.90;0.90;;;19.20;75.90;;;;;;5128218;27;43402;-70
2023/10/27 04:57:42;;;;;;;1.00;1.00;;;19.20;76.60;;;;;;5128803;27;43898;-69
2023/10/27 05:00:12;;;;;;;0.90;0.90;;;19.20;76.70;;;;;;5125687;27;43480;-68
2023/10/27 05:02:40;;;;;;;0.80;0.80;;;19.30;76.10;;;;;;5127529;27;43444;-68
2023/10/27 05:05:09;;;;;;;0.70;0.70;;;19.50;75.80;;;;;;5129359;27;43983;-68
2023/10/27 05:07:39;;;;;;;0.90;0.90;;;19.50;75.30;;;;;;5129704;27;43852;-68
2023/10/27 05:10:08;;;;;;;0.70;0.70;;;19.60;75.20;;;;;;5130969;27;43601;-67
2023/10/27 05:12:36;;;;;;;0.80;0.80;;;19.60;75.10;;;;;;5132900;27;43563;-68
2023/10/27 05:15:05;;;;;;;0.77;0.77;;;19.50;75.00;;;;;;5132094;27;43504;-68
2023/10/27 05:17:34;;;;;;;0.70;0.70;;;19.40;75.20;;;;;;5131329;27;43617;-70
2023/10/27 05:20:03;;;;;;;0.90;0.90;;;19.40;75.90;;;;;;5130351;27;44840;-70
2023/10/27 05:22:31;;;;;;;0.70;0.70;;;19.30;76.10;;;;;;5132102;27;44047;-70
2023/10/27 05:25:03;;;;;;;0.80;0.80;;;19.30;75.80;;;;;;5131847;27;43988;-70
2023/10/27 05:27:31;;;;;;;0.77;0.77;;;19.30;75.60;;;;;;5130877;27;43912;-70
2023/10/27 05:30:00;;;;;;;0.90;0.90;;;19.30;75.70;;;;;;5129518;27;43424;-70
2023/10/27 05:32:29;;;;;;;0.70;0.70;;;19.20;76.10;;;;;;5128987;27;43456;-70
2023/10/27 05:34:57;;;;;;;0.80;0.80;;;19.20;76.40;;;;;;5131234;27;43517;-70
2023/10/27 05:37:26;;;;;;;0.70;0.70;;;19.20;76.00;;;;;;5130317;27;43723;-70
2023/10/27 05:39:54;;;;;;;0.80;0.80;;;19.20;75.70;;;;;;5131262;27;43428;-70
2023/10/27 05:42:24;;;;;;;0.80;0.80;;;19.20;75.70;;;;;;5130639;27;43528;-70
2023/10/27 05:44:52;;;;;;;0.70;0.70;;;19.20;75.80;;;;;;5130734;27;43466;-70
2023/10/27 05:47:20;;;;;;;0.80;0.80;;;19.20;76.60;;;;;;5130388;27;43629;-70
2023/10/27 05:49:50;;;;;;;0.70;0.70;;;19.20;76.60;;;;;;5129771;27;45044;-71
2023/10/27 05:52:18;;;;;;;0.70;0.70;;;19.30;76.20;;;;;;5130796;27;43992;-70
2023/10/27 05:54:46;;;;;;;0.60;0.60;;;19.50;75.80;;;;;;5131941;27;43421;-70
2023/10/27 05:57:16;;;;;;;0.80;0.80;;;19.60;75.30;;;;;;5129690;27;43595;-72
2023/10/27 05:59:53;;;;;;;0.70;0.70;;;19.60;75.00;;;;;;5131175;27;43398;-70
2023/10/27 06:02:21;;;;;;;0.70;0.70;;;19.60;74.80;;;;;;5129718;27;43486;-69
2023/10/27 06:04:49;;;;;;;0.90;0.90;;;19.50;74.60;;;;;;5130557;27;43362;-69
2023/10/27 06:07:17;;;;;;;0.70;0.70;;;19.50;74.80;;;;;;5131042;27;43908;-70
2023/10/27 06:09:46;;;;;;;0.70;0.70;;;19.40;75.40;;;;;;5128705;27;44391;-70
2023/10/27 06:12:15;;;;;;;0.70;0.70;;;19.30;75.80;;;;;;5130593;27;43480;-70
2023/10/27 06:14:55;;;;;;;0.80;0.80;;;19.30;75.70;;;;;;5131097;27;44007;-70
2023/10/27 06:17:23;;;;;;;0.70;0.70;;;19.30;75.50;;;;;;5129376;27;46316;-69
2023/10/27 06:19:51;;;;;;;0.50;0.50;;;19.30;75.50;;;;;;5128030;27;43410;-69
2023/10/27 06:22:32;;;;;;;0.60;0.60;;;19.20;75.60;;;;;;5129303;27;43551;-70
2023/10/27 06:25:00;;;;;;;0.60;0.60;;;19.20;76.30;;;;;;5129003;27;44027;-70
2023/10/27 06:27:28;;;;;;;0.70;0.70;;;19.30;76.40;;;;;;5129240;27;45752;-70
2023/10/27 06:29:58;;;;;;;0.70;0.70;;;19.30;76.00;;;;;;5130761;27;43542;-70
2023/10/27 06:32:26;;;;;;;0.67;0.67;;;19.40;75.70;;;;;;5130623;27;43544;-70
2023/10/27 06:34:54;;;;;;;0.70;0.70;;;19.40;75.40;;;;;;5130927;27;43406;-70
2023/10/27 06:37:23;;;;;;;0.70;0.70;;;19.40;75.30;;;;;;5128612;27;43815;-70
2023/10/27 06:39:58;;;;;;;0.67;0.67;;;19.40;76.00;;;;;;5127371;27;43883;-70
2023/10/27 06:42:26;;;;;;;0.70;0.70;;;19.40;75.80;;;;;;5130733;27;43377;-70
2023/10/27 06:44:54;;;;;;;0.70;0.70;;;19.30;75.40;;;;;;5130935;27;43476;-70
2023/10/27 06:47:24;;;;;;;0.57;0.57;;;19.30;75.50;;;;;;5130338;27;43882;-70
2023/10/27 06:49:52;;;;;;;0.60;0.60;;;19.30;75.60;;;;;;5130011;27;43443;-69
2023/10/27 06:52:20;;;;;;;0.60;0.60;;;19.20;76.20;;;;;;5122317;27;44067;-70
2023/10/27 06:54:48;;;;;;;0.50;0.50;;;19.30;76.30;;;;;;5124080;27;43511;-70
2023/10/27 06:57:16;;;;;;;0.60;0.60;;;19.30;76.10;;;;;;5129560;27;43962;-70
2023/10/27 06:59:44;;;;;;;0.70;0.70;;;19.30;75.70;;;;;;5124782;27;43480;-71
2023/10/27 07:02:12;;;;;;;0.50;0.50;;;19.30;75.60;;;;;;5125550;27;43504;-70
2023/10/27 07:04:41;;;;;;;0.70;0.70;;;19.30;75.90;;;;;;5130108;27;43518;-70
2023/10/27 07:07:10;;;;;;;1.10;0.60;;;19.30;76.30;;;;;;5128034;27;43865;-70
2023/10/27 07:09:54;;;;;;;0.73;0.73;;;19.30;76.10;;;;;;5129441;27;43397;-70
2023/10/27 07:12:22;;;;;;;0.60;0.60;;;19.20;75.80;;;;;;5129455;27;43460;-70
2023/10/27 07:14:50;;;;;;;0.80;0.80;;;19.20;75.80;;;;;;5131023;27;43371;-70
2023/10/27 07:17:18;;;;;;;0.73;0.73;;;19.20;76.00;;;;;;5131861;27;43794;-70
2023/10/27 07:19:47;;;;;;;0.50;0.50;;;19.20;76.60;;;;;;5130480;27;43444;-70
2023/10/27 07:22:16;;;;;;;0.70;0.70;;;19.20;76.30;;;;;;5131917;27;43426;-70
2023/10/27 07:24:44;;;;;;;0.60;0.60;;;19.20;76.00;;;;;;5126082;27;43584;-70
2023/10/27 07:27:12;;;;;;;0.60;0.60;;;19.20;75.90;;;;;;5127124;27;43894;-70
2023/10/27 07:29:40;;;;;;;0.57;0.57;;;19.20;76.10;;;;;;5131565;27;43485;-70
2023/10/27 07:32:08;;;;;;;0.70;0.70;;;19.10;76.40;;;;;;5129124;27;43814;-70
2023/10/27 07:34:36;;;;;;;0.63;0.63;;;19.20;76.70;;;;;;5127995;27;43461;-70
2023/10/27 07:37:06;;;;;;;0.60;0.60;;;19.20;76.30;;;;;;5130593;27;43885;-71
2023/10/27 07:39:35;;;;;;;0.50;0.50;;;19.40;75.90;;;;;;5128951;27;43453;-72
2023/10/27 07:42:04;;;;;;;0.50;0.50;;;19.50;75.30;;;;;;5123788;27;43456;-71
2023/10/27 07:44:32;;;;;;;0.57;0.57;;;19.60;75.10;;;;;;5129855;27;43867;-71
2023/10/27 07:47:00;;;;;;;0.53;0.53;;;19.60;75.00;;;;;;5124070;27;44321;-72
2023/10/27 07:49:28;;;;;;;0.47;0.47;;;19.50;74.90;;;;;;5122097;27;44050;-72
2023/10/27 07:51:56;;;;;;;0.77;0.77;;;19.50;75.10;;;;;;5123070;27;43483;-71
2023/10/27 07:54:26;;;;;;;0.80;0.80;;;19.40;75.00;;;;;;5124258;27;43484;-72
2023/10/27 07:56:54;;;;;;;0.70;0.70;;;19.30;74.60;;;;;;5121608;27;43622;-71
2023/10/27 07:59:22;;;;;;;0.50;0.50;;;19.30;74.60;;;;;;5123450;27;43445;-72
2023/10/27 08:01:51;;;;;;;1.27;0.83;;;19.30;74.80;;;;;;5123233;27;43436;-71
2023/10/27 08:04:20;;;;;;;0.70;0.70;;;19.20;74.80;;;;;;5124906;27;44652;-72
2023/10/27 08:06:48;;;;;;;0.70;0.70;;;19.20;75.00;;;;;;5118676;27;43613;-71
2023/10/27 08:09:16;;;;;;;0.50;0.50;;;19.20;75.30;;;;;;5119743;27;44966;-72
2023/10/27 08:11:46;;;;;;;0.60;0.60;;;19.20;75.00;;;;;;5119314;27;43491;-71
2023/10/27 08:14:14;;;;;;;0.60;0.60;;;19.20;75.20;;;;;;5123059;27;43434;-71
2023/10/27 08:16:42;;;;;;;0.60;0.60;;;19.10;75.80;;;;;;5121016;27;44025;-71
2023/10/27 08:19:10;;;;;;;0.67;0.67;;;19.10;75.20;;;;;;5122366;27;43538;-72
2023/10/27 08:21:41;;;;;;;0.60;0.60;;;19.10;75.30;;;;;;5121287;27;43507;-71
2023/10/27 08:24:10;;;;;;;0.70;0.50;;;19.10;75.30;;;;;;5120667;27;43479;-72
2023/10/27 08:26:38;;;;;;;0.40;0.40;;;19.20;75.00;;;;;;5120031;27;45463;-71
2023/10/27 08:29:07;;;;;;;0.70;0.67;;;19.30;74.60;;;;;;5124129;27;43549;-72
2023/10/27 08:31:35;;;;;;;0.73;0.73;;;19.40;74.20;;;;;;5120147;27;43899;-71
2023/10/27 08:34:04;;;;;;;0.60;0.60;;;19.50;73.80;;;;;;5120333;27;43688;-71
2023/10/27 08:36:32;;;;;;;0.70;0.70;;;19.50;73.70;;;;;;5122643;27;44498;-71
2023/10/27 08:39:00;;;;;;;0.60;0.60;;;19.50;74.00;;;;;;5121112;27;43775;-72
2023/10/27 08:41:28;;;;;;;0.60;0.60;;;19.40;74.30;;;;;;5122303;27;43457;-71
2023/10/27 08:43:56;;;;;;;0.90;0.90;;;19.30;74.40;;;;;;5118937;27;43456;-72
2023/10/27 08:46:36;;;;;;;0.83;0.83;;;19.30;74.80;;;;;;5122438;27;44089;-71
2023/10/27 08:49:04;;;;;;;1.27;1.17;;;19.30;74.60;;;;;;5119415;27;43736;-71
2023/10/27 08:51:32;;;;;;;1.37;1.20;;;19.30;74.80;;;;;;5121794;27;44061;-71
2023/10/27 08:54:00;;;;;;;1.57;1.50;;;19.20;74.90;;;;;;5119666;27;43511;-71
2023/10/27 08:56:28;;;;;;;4.13;2.10;;;19.20;75.10;;;;;;5119494;27;43618;-71
2023/10/27 08:58:58;;;;;;;3.60;2.33;;;19.20;75.30;;;;;;5120071;27;43508;-71
2023/10/27 09:01:26;;;;;;;6.03;2.67;;;19.20;75.10;;;;;;5121477;27;44064;-72
2023/10/27 09:04:09;;;;;;;3.93;2.70;;;19.20;75.20;;;;;;5116944;27;43660;-72
2023/10/27 09:06:38;;;;;;;4.67;2.57;;;19.20;75.30;;;;;;5122274;27;43631;-72
2023/10/27 09:09:07;;;;;;;4.87;2.70;;;19.10;75.20;;;;;;5121125;27;43986;-72
2023/10/27 09:11:42;;;;;;;6.70;2.97;;;19.10;75.30;;;;;;5122227;27;43429;-71
2023/10/27 09:14:20;;;;;;;11.17;3.87;;;19.10;75.40;;;;;;5123026;27;43529;-72
2023/10/27 09:16:48;;;;;;;7.80;3.57;;;19.20;75.10;;;;;;5122520;27;44055;-71
2023/10/27 09:19:25;;;;;;;6.10;3.30;;;19.30;74.70;;;;;;5121782;27;45040;-71
2023/10/27 09:21:54;;;;;;;5.93;3.30;;;19.40;74.20;;;;;;5122961;27;43383;-71
2023/10/27 09:24:22;;;;;;;8.53;3.60;;;19.50;74.00;;;;;;5118784;27;43618;-71
2023/10/27 09:26:50;;;;;;;9.37;3.73;;;19.50;74.00;;;;;;5121513;27;43586;-71
2023/10/27 09:29:18;;;;;;;6.03;3.10;;;19.40;74.30;;;;;;5120448;27;43448;-71
2023/10/27 09:31:47;;;;;;;6.13;3.30;;;19.40;74.50;;;;;;5119760;27;44012;-71
2023/10/27 09:34:19;;;;;;;8.83;4.00;;;19.30;74.60;;;;;;5119538;27;43495;-71
2023/10/27 09:36:49;;;;;;;7.03;3.70;;;19.30;74.90;;;;;;5121526;27;43685;-71
2023/10/27 09:39:18;;;;;;;7.83;3.40;;;19.30;74.80;;;;;;5121226;27;43403;-71
2023/10/27 09:41:47;;;;;;;5.10;3.50;;;19.20;74.80;;;;;;5119766;27;43479;-71
2023/10/27 09:44:16;;;;;;;8.17;3.50;;;19.20;74.90;;;;;;5122372;27;43550;-71
2023/10/27 09:46:49;;;;;;;6.67;3.53;;;19.20;75.00;;;;;;5120153;27;43666;-72
2023/10/27 09:49:18;;;;;;;9.37;3.90;;;19.20;75.30;;;;;;5122648;27;44124;-70
2023/10/27 09:51:50;;;;;;;7.47;3.57;;;19.20;75.10;;;;;;5118297;27;43507;-70
2023/10/27 09:54:18;;;;;;;8.33;3.47;;;19.20;75.20;;;;;;5124633;27;43385;-70
2023/10/27 09:56:46;;;;;;;4.03;3.07;;;19.20;75.20;;;;;;5124860;27;43619;-69
2023/10/27 09:59:15;;;;;;;13.13;3.70;;;19.10;75.20;;;;;;5119322;27;44447;-69
2023/10/27 10:01:43;;;;;;;9.67;3.67;;;19.10;75.30;;;;;;5126046;27;43990;-70
2023/10/27 10:04:11;;;;;;;6.27;3.70;;;19.10;75.60;;;;;;5124025;27;43576;-68
2023/10/27 10:06:39;;;;;;;8.40;3.17;;;19.20;75.40;;;;;;5124314;27;44101;-68
2023/10/27 10:09:20;;;;;;;8.90;4.10;;;19.30;75.00;;;;;;5124615;27;43489;-68
2023/10/27 10:11:55;;;;;;;10.20;3.90;;;19.40;74.80;;;;;;5122845;27;43443;-68
2023/10/27 10:14:48;;;;;;;7.67;4.10;;;19.40;74.50;;;;;;5125365;27;43555;-68
2023/10/27 10:17:39;;;;;;;6.43;3.60;;;19.40;74.80;;;;;;5122475;27;43832;-69
2023/10/27 10:20:09;;;;;;;7.47;3.30;;;19.40;74.70;;;;;;5124492;27;43568;-68
2023/10/27 10:22:52;;;;;;;5.77;3.60;;;19.30;74.50;;;;;;5127383;27;43584;-68
2023/10/27 10:25:29;;;;;;;9.53;3.83;;;19.30;74.60;;;;;;5126455;27;43529;-69
2023/10/27 10:28:25;;;;;;;7.93;4.03;;;19.30;74.60;;;;;;5117248;27;43860;-68
2023/10/27 10:31:25;;;;;;;6.70;3.70;;;19.20;75.00;;;;;;5127366;27;44189;-67
2023/10/27 10:34:10;;;;;;;7.67;3.53;;;19.20;74.80;;;;;;5080991;27;43474;-68
2023/10/27 10:36:40;;;;;;;5.23;3.67;;;19.20;75.10;;;;;;5131580;27;43421;-67
2023/10/27 10:39:10;;;;;;;8.80;3.40;;;19.20;75.20;;;;;;5125865;27;45718;-68
2023/10/27 10:42:04;;;;;;;5.60;3.70;;;19.20;75.40;;;;;;5126115;27;43397;-68
2023/10/27 10:44:33;;;;;;;6.10;4.20;;;19.20;75.80;;;;;;5124766;27;43418;-67
2023/10/27 10:47:05;;;;;;;10.10;3.93;;;19.20;75.60;;;;;;5127083;27;43889;-68
2023/10/27 10:49:33;;;;;;;12.37;4.43;;;19.30;75.30;;;;;;5118378;27;43796;-67
2023/10/27 10:52:02;;;;;;;6.50;3.60;;;19.40;74.70;;;;;;5121687;27;43481;-69
2023/10/27 10:54:31;;;;;;;8.90;3.60;;;19.40;74.70;;;;;;5123149;27;43439;-67
2023/10/27 10:57:09;;;;;;;6.53;3.37;;;19.30;74.70;;;;;;5119044;27;43473;-68
2023/10/27 10:59:37;;;;;;;7.80;3.63;;;19.30;75.10;;;;;;5123251;27;43602;-67
2023/10/27 11:02:05;;;;;;;6.07;3.80;;;19.30;74.80;;;;;;5121290;27;43565;-68
2023/10/27 11:04:34;;;;;;;5.73;3.53;;;19.30;74.90;;;;;;5123467;27;43476;-69
2023/10/27 11:07:05;;;;;;;6.10;3.23;;;19.30;75.10;;;;;;5120671;27;43540;-71
2023/10/27 11:09:33;;;;;;;8.73;3.43;;;19.30;75.20;;;;;;5119171;27;44491;-70
2023/10/27 11:12:02;;;;;;;5.63;3.47;;;19.20;75.30;;;;;;5120641;27;43889;-71
2023/10/27 11:14:41;;;;;;;5.20;3.30;;;19.20;75.30;;;;;;5122853;27;43444;-72
2023/10/27 11:17:11;;;;;;;4.87;3.03;;;19.20;75.30;;;;;;5120401;27;43525;-70
2023/10/27 11:19:53;;;;;;;4.10;3.23;;;19.20;75.30;;;;;;5117961;27;46008;-73
2023/10/27 11:22:25;;;;;;;6.27;3.80;;;19.20;75.50;;;;;;5120613;27;43891;-70
2023/10/27 11:24:53;;;;;;;5.13;3.47;;;19.10;75.60;;;;;;5121186;27;43505;-70
2023/10/27 11:27:25;;;;;;;5.10;3.27;;;19.20;75.80;;;;;;5122897;27;43512;-73
2023/10/27 11:29:59;;;;;;;3.60;3.10;;;19.20;75.30;;;;;;5120681;27;44582;-70
2023/10/27 11:32:27;;;;;;;5.77;2.97;;;19.30;75.00;;;;;;5121543;27;43505;-70
2023/10/27 11:34:58;;;;;;;4.07;2.60;;;19.40;74.60;;;;;;5121708;27;43406;-70
2023/10/27 11:37:26;;;;;;;3.60;2.80;;;19.40;74.90;;;;;;5120216;27;43439;-69
2023/10/27 11:39:57;;;;;;;5.53;3.20;;;19.30;75.10;;;;;;5123436;27;43633;-69
2023/10/27 11:42:25;;;;;;;3.47;2.97;;;19.30;75.10;;;;;;5119494;27;44099;-70
2023/10/27 11:44:53;;;;;;;4.37;3.03;;;19.30;75.00;;;;;;5124147;27;43440;-70
2023/10/27 11:47:24;;;;;;;3.07;2.50;;;19.30;75.10;;;;;;5121030;27;43705;-70
2023/10/27 11:49:53;;;;;;;3.10;2.60;;;19.30;75.30;;;;;;5118928;27;45949;-70
2023/10/27 11:52:22;;;;;;;5.97;3.10;;;19.20;75.50;;;;;;5117812;27;43551;-70
2023/10/27 11:54:50;;;;;;;4.53;3.40;;;19.20;75.80;;;;;;5120257;27;43640;-70
2023/10/27 11:57:18;;;;;;;3.40;3.00;;;19.20;75.60;;;;;;5121891;27;43412;-71
2023/10/27 11:59:46;;;;;;;3.83;2.87;;;19.20;75.70;;;;;;5123025;27;43970;-71
2023/10/27 12:02:15;;;;;;;2.93;2.70;;;19.20;75.80;;;;;;5119962;27;44962;-71
2023/10/27 12:04:45;;;;;;;3.60;3.00;;;19.20;75.90;;;;;;5119622;27;43425;-71
2023/10/27 12:07:16;;;;;;;3.57;2.97;;;19.20;76.20;;;;;;5120964;27;43516;-71
2023/10/27 12:09:44;;;;;;;6.13;3.20;;;19.20;76.00;;;;;;5120569;27;45709;-71
2023/10/27 12:12:14;;;;;;;2.53;2.33;;;19.20;76.00;;;;;;5121892;27;43973;-71
2023/10/27 12:14:42;;;;;;;3.50;2.90;;;19.20;76.10;;;;;;5119963;27;43515;-71
2023/10/27 12:17:11;;;;;;;4.60;2.73;;;19.10;76.00;;;;;;5120765;27;43447;-69
2023/10/27 12:19:39;;;;;;;6.20;3.20;;;19.10;76.10;;;;;;5122434;27;44918;-69
2023/10/27 12:22:09;;;;;;;3.50;2.90;;;19.20;76.20;;;;;;5120284;27;43432;-69
2023/10/27 12:24:37;;;;;;;4.53;2.90;;;19.20;76.10;;;;;;5123211;27;43440;-69
2023/10/27 12:27:09;;;;;;;5.33;3.10;;;19.30;75.70;;;;;;5125719;27;43472;-69
2023/10/27 12:29:37;;;;;;;3.27;2.63;;;19.50;75.40;;;;;;5124731;27;44054;-69
2023/10/27 12:32:05;;;;;;;3.30;2.70;;;19.60;74.90;;;;;;5120804;27;45243;-69
2023/10/27 12:34:33;;;;;;;2.50;2.30;;;19.60;74.60;;;;;;5122906;27;43489;-69
2023/10/27 12:37:03;;;;;;;4.03;2.83;;;19.50;74.70;;;;;;5124742;27;43607;-69
2023/10/27 12:39:32;;;;;;;4.10;2.70;;;19.50;75.00;;;;;;5122386;27;43622;-69
2023/10/27 12:42:00;;;;;;;4.00;2.30;;;19.40;75.20;;;;;;5122914;27;43461;-69
2023/10/27 12:44:28;;;;;;;3.63;2.40;;;19.30;75.50;;;;;;5123127;27;43415;-69
2023/10/27 12:46:56;;;;;;;2.80;2.60;;;19.30;75.40;;;;;;5121779;27;43575;-69
2023/10/27 12:49:25;;;;;;;2.47;2.30;;;19.30;75.60;;;;;;5123302;27;44476;-69
2023/10/27 12:51:56;;;;;;;3.17;2.50;;;19.30;75.80;;;;;;5123075;27;43429;-69
2023/10/27 12:54:24;;;;;;;3.40;2.10;;;19.20;75.80;;;;;;5123921;27;43427;-69
2023/10/27 12:56:54;;;;;;;2.73;2.40;;;19.20;75.90;;;;;;5122624;27;43474;-69